Time;durP1;ratioP1;P1;durP2;ratioP2;P2;SDS_P1;SDS_P2;PMS_P1;PMS_P2;Temp;Humidity;BMP_temperature;BMP_pressure;BME280_temperature;BME280_humidity;BME280_pressure;Samples;Min_cycle;Max_cycle;Signal;HPM_P1;HPM_P2
2021/12/08 00:00:08;;;;;;;1.20;1.10;;;;;;;-1.38;93.97;93286.22;5051155;28;20268;-73
2021/12/08 00:02:33;;;;;;;1.30;1.20;;;;;;;-1.52;90.03;93275.84;5045057;28;20277;-72
2021/12/08 00:04:59;;;;;;;1.40;1.10;;;;;;;-1.34;93.60;93280.78;5042929;28;20240;-72
2021/12/08 00:07:25;;;;;;;1.00;0.90;;;;;;;-1.38;92.95;93266.72;5040813;28;20273;-73
2021/12/08 00:10:03;;;;;;;2.40;1.10;;;;;;;-1.41;90.86;93260.25;5051818;28;20222;-72
2021/12/08 00:15:13;;;;;;;3.80;1.00;;;;;;;-1.41;90.13;93252.22;5051297;28;20239;-72
2021/12/08 00:17:39;;;;;;;1.37;1.23;;;;;;;-1.48;89.96;93233.66;5049207;28;20774;-72
2021/12/08 00:20:05;;;;;;;1.40;1.10;;;;;;;-1.37;92.64;93239.50;5046101;28;20301;-72
2021/12/08 00:22:31;;;;;;;1.13;1.03;;;;;;;-1.38;92.65;93238.03;5030968;28;20260;-72
2021/12/08 00:24:56;;;;;;;2.17;0.93;;;;;;;-1.40;92.91;93244.97;5044345;28;20656;-72
2021/12/08 00:27:22;;;;;;;1.60;1.30;;;;;;;-1.37;93.49;93239.50;5050646;28;20519;-72
2021/12/08 00:29:48;;;;;;;2.80;1.40;;;;;;;-1.31;95.00;93234.41;5049980;28;20285;-73
2021/12/08 00:32:14;;;;;;;3.87;1.80;;;;;;;-1.29;93.26;93229.38;5044508;28;20233;-72
2021/12/08 00:34:39;;;;;;;4.93;1.90;;;;;;;-1.34;93.02;93225.28;5042683;28;20273;-72
2021/12/08 00:37:06;;;;;;;3.97;1.60;;;;;;;-1.23;94.22;93220.41;5043536;28;20202;-72
2021/12/08 00:39:33;;;;;;;2.00;1.60;;;;;;;-1.21;94.71;93217.31;5049186;28;20317;-72
2021/12/08 00:41:59;;;;;;;2.03;1.20;;;;;;;-1.14;95.05;93217.13;5051451;28;20205;-72
2021/12/08 00:44:25;;;;;;;0.83;0.80;;;;;;;-1.15;95.71;93220.22;5049949;28;20301;-73
2021/12/08 00:46:50;;;;;;;1.27;1.17;;;;;;;-1.32;94.99;93206.88;5044681;28;20299;-72
2021/12/08 00:49:16;;;;;;;1.07;1.00;;;;;;;-1.33;94.32;93208.06;5047198;28;20191;-72
2021/12/08 00:51:42;;;;;;;0.97;0.90;;;;;;;-1.33;92.95;93199.28;5051089;28;20217;-72
2021/12/08 00:54:08;;;;;;;1.43;1.03;;;;;;;-1.33;91.34;93200.03;5050697;28;20215;-72
2021/12/08 00:56:34;;;;;;;1.30;1.10;;;;;;;-1.32;88.23;93195.41;5049712;28;20206;-72
2021/12/08 00:59:00;;;;;;;1.00;0.90;;;;;;;-1.27;92.50;93203.69;5050306;28;20328;-72
2021/12/08 01:01:25;;;;;;;2.20;1.40;;;;;;;-1.17;92.69;93195.78;5051072;28;20219;-72
2021/12/08 01:03:51;;;;;;;4.47;1.17;;;;;;;-1.16;88.44;93194.59;5052599;28;20294;-72
2021/12/08 01:06:18;;;;;;;1.23;1.13;;;;;;;-1.06;90.29;93205.03;5029684;28;20274;-72
2021/12/08 01:08:45;;;;;;;1.30;1.20;;;;;;;-1.11;90.20;93210.91;5046455;28;20195;-72
2021/12/08 01:11:16;;;;;;;2.77;1.37;;;;;;;-1.11;93.50;93197.53;5041773;28;20235;-72
2021/12/08 01:13:42;;;;;;;3.10;1.53;;;;;;;-1.26;92.03;93205.16;5046944;28;20217;-72
2021/12/08 01:16:08;;;;;;;2.10;1.27;;;;;;;-1.37;93.77;93202.03;5053364;28;20751;-72
2021/12/08 01:18:34;;;;;;;0.93;0.93;;;;;;;-1.49;93.86;93186.69;5031105;28;20194;-72
2021/12/08 01:21:04;;;;;;;3.17;2.30;;;;;;;-1.21;93.64;93187.84;5058749;28;20206;-72
2021/12/08 01:23:30;;;;;;;7.67;5.77;;;;;;;-1.08;93.85;93185.19;5049357;28;20985;-71
2021/12/08 01:25:56;;;;;;;2.77;2.33;;;;;;;-1.20;91.97;93188.63;5049374;28;20194;-72
2021/12/08 01:28:23;;;;;;;5.83;2.07;;;;;;;-1.27;95.97;93197.56;5041660;28;20194;-73
2021/12/08 01:30:51;;;;;;;1.40;1.13;;;;;;;-1.18;93.97;93180.88;5045855;28;20606;-72
2021/12/08 01:33:19;;;;;;;2.50;2.30;;;;;;;-1.02;94.04;93183.50;5040844;28;20643;-72
2021/12/08 01:35:44;;;;;;;1.83;1.63;;;;;;;-1.15;92.70;93183.47;5045228;28;20957;-73
2021/12/08 01:38:10;;;;;;;2.37;1.10;;;;;;;-1.36;96.57;93178.69;5032248;28;20190;-72
2021/12/08 01:40:36;;;;;;;2.57;1.10;;;;;;;-1.31;95.80;93183.53;5049400;28;20206;-72
2021/12/08 01:43:03;;;;;;;2.30;1.57;;;;;;;-1.47;95.31;93186.25;5048863;28;20214;-72
2021/12/08 01:48:18;;;;;;;1.20;1.10;;;;;;;-1.45;98.93;93165.16;5047889;28;20228;-72
2021/12/08 01:50:48;;;;;;;1.40;1.00;;;;;;;-1.48;96.94;93166.03;5054115;28;20209;-72
2021/12/08 01:53:14;;;;;;;2.70;2.50;;;;;;;-1.39;97.50;93166.91;5053021;28;20236;-72
2021/12/08 01:55:41;;;;;;;1.70;1.17;;;;;;;-1.52;94.53;93168.03;5061020;28;20300;-72
2021/12/08 01:58:08;;;;;;;0.93;0.93;;;;;;;-1.59;98.59;93154.84;5042101;28;20198;-73
2021/12/08 02:00:45;;;;;;;1.60;1.20;;;;;;;-1.59;95.68;93168.22;5022798;28;20304;-73
2021/12/08 02:03:11;;;;;;;1.93;1.33;;;;;;;-1.82;99.50;93182.56;5048340;28;20222;-72
2021/12/08 02:05:37;;;;;;;1.27;1.03;;;;;;;-1.85;100.00;93177.31;5041841;28;20189;-72
2021/12/08 02:08:04;;;;;;;1.47;1.00;;;;;;;-1.66;100.00;93171.06;5054721;28;20198;-72
2021/12/08 02:10:31;;;;;;;1.37;0.90;;;;;;;-1.58;100.00;93175.09;5047604;28;20199;-72
2021/12/08 02:12:56;;;;;;;1.30;1.10;;;;;;;-1.90;100.00;93165.19;5047940;28;20218;-72
2021/12/08 02:15:22;;;;;;;1.33;1.17;;;;;;;-1.79;100.00;93165.69;5050305;28;20251;-72
2021/12/08 02:17:52;;;;;;;1.23;0.97;;;;;;;-1.80;100.00;93166.81;5053607;28;20241;-72
2021/12/08 02:20:20;;;;;;;0.80;0.80;;;;;;;-1.58;100.00;93178.50;5046363;28;20246;-72
2021/12/08 02:22:46;;;;;;;2.57;1.23;;;;;;;-1.82;100.00;93171.13;5048168;28;20194;-72
2021/12/08 02:25:16;;;;;;;1.67;0.90;;;;;;;-1.97;100.00;93157.31;5041510;28;20249;-72
2021/12/08 02:27:42;;;;;;;1.60;0.87;;;;;;;-1.75;100.00;93169.00;5034402;28;20277;-72
2021/12/08 02:30:21;;;;;;;1.10;0.90;;;;;;;-1.86;100.00;93168.53;5051888;28;20298;-72
2021/12/08 02:46:53;;;;;;;1.03;0.80;;;;;;;-1.97;100.00;93170.69;5044298;28;20214;-73
2021/12/08 02:49:22;;;;;;;1.33;0.90;;;;;;;-1.87;100.00;93155.56;5047156;28;20205;-73
2021/12/08 02:51:49;;;;;;;1.40;0.83;;;;;;;-1.73;100.00;93161.31;5053100;28;20198;-73
2021/12/08 02:54:15;;;;;;;1.80;0.97;;;;;;;-1.95;100.00;93163.00;5052039;28;20214;-73
2021/12/08 02:56:41;;;;;;;2.23;1.10;;;;;;;-1.91;100.00;93160.25;5051009;28;20269;-73
2021/12/08 02:59:08;;;;;;;1.70;1.10;;;;;;;-1.67;100.00;93156.97;5063761;28;20197;-73
2021/12/08 03:01:35;;;;;;;0.87;0.80;;;;;;;-1.73;100.00;93153.28;5071865;28;20197;-73
2021/12/08 03:04:01;;;;;;;2.60;1.00;;;;;;;-1.86;100.00;93152.47;5072078;28;20301;-73
2021/12/08 03:06:26;;;;;;;1.90;1.10;;;;;;;-1.53;100.00;93155.84;5033392;28;20202;-73
2021/12/08 03:08:52;;;;;;;1.63;1.03;;;;;;;-1.75;100.00;93170.94;5045996;28;20186;-72
2021/12/08 03:11:18;;;;;;;2.07;1.20;;;;;;;-1.82;100.00;93161.16;5059492;28;20190;-72
2021/12/08 03:13:58;;;;;;;1.97;1.20;;;;;;;-1.86;100.00;93151.72;5061303;28;20292;-73
2021/12/08 03:16:23;;;;;;;2.30;0.90;;;;;;;-1.86;100.00;93138.34;5059549;28;20201;-72
2021/12/08 03:18:49;;;;;;;1.53;1.40;;;;;;;-1.75;100.00;93158.28;5031123;28;20580;-73
2021/12/08 03:21:15;;;;;;;1.23;0.90;;;;;;;-1.54;100.00;93159.66;5055267;28;20214;-73
2021/12/08 03:24:04;;;;;;;1.10;1.00;;;;;;;-1.31;100.00;93156.75;5065063;28;20210;-72
2021/12/08 03:26:32;;;;;;;2.47;0.80;;;;;;;-1.45;100.00;93138.41;5048284;28;20191;-73
2021/12/08 03:29:04;;;;;;;1.80;1.13;;;;;;;-1.54;100.00;93157.75;5042805;28;20278;-73
2021/12/08 03:31:35;;;;;;;1.00;0.90;;;;;;;-1.31;100.00;93160.19;5052948;28;20178;-72
2021/12/08 03:34:00;;;;;;;1.43;1.20;;;;;;;-1.29;100.00;93171.22;5055929;28;20210;-72
2021/12/08 03:36:26;;;;;;;1.37;1.07;;;;;;;-1.53;100.00;93172.63;5052850;28;20186;-72
2021/12/08 03:38:52;;;;;;;2.93;1.10;;;;;;;-1.71;100.00;93160.88;5049156;28;20225;-72
2021/12/08 03:41:18;;;;;;;2.73;0.90;;;;;;;-1.74;100.00;93149.09;5047409;28;20210;-72
2021/12/08 03:43:43;;;;;;;1.83;1.10;;;;;;;-1.85;100.00;93153.22;5051646;28;20214;-72
2021/12/08 03:46:12;;;;;;;1.57;1.00;;;;;;;-1.65;100.00;93149.25;5062991;28;20201;-73
2021/12/08 03:48:47;;;;;;;1.43;0.90;;;;;;;-1.72;100.00;93157.47;5041924;28;20598;-73
2021/12/08 03:51:15;;;;;;;2.97;1.33;;;;;;;-1.63;100.00;93160.28;5051431;28;20193;-72
2021/12/08 03:53:40;;;;;;;1.63;0.87;;;;;;;-1.67;100.00;93151.59;5052390;28;20671;-72
2021/12/08 03:56:06;;;;;;;1.17;1.03;;;;;;;-1.27;100.00;93168.13;5051455;28;20186;-72
2021/12/08 03:58:33;;;;;;;1.17;0.97;;;;;;;-1.52;100.00;93168.78;5051835;28;20594;-72
2021/12/08 04:00:58;;;;;;;3.10;1.03;;;;;;;-1.54;100.00;93173.06;5052264;28;20692;-73
2021/12/08 04:03:27;;;;;;;1.27;1.10;;;;;;;-1.51;100.00;93188.28;5047266;28;20221;-72
2021/12/08 04:05:56;;;;;;;1.77;1.20;;;;;;;-1.79;100.00;93181.72;5032200;28;20533;-72
2021/12/08 04:08:38;;;;;;;0.90;0.90;;;;;;;-1.56;100.00;93178.81;5032376;28;20592;-73
2021/12/08 04:11:06;;;;;;;2.70;1.17;;;;;;;-1.42;100.00;93175.78;5031635;28;20179;-73
2021/12/08 04:13:46;;;;;;;1.03;0.93;;;;;;;-1.27;100.00;93173.47;5038553;28;20298;-72
2021/12/08 04:16:15;;;;;;;1.30;1.00;;;;;;;-1.48;99.64;93176.72;5064066;28;20186;-72
2021/12/08 04:18:42;;;;;;;0.97;0.90;;;;;;;-1.51;100.00;93156.16;5055180;28;20213;-72
2021/12/08 04:21:09;;;;;;;1.80;1.10;;;;;;;-1.37;100.00;93175.28;5052847;28;20218;-72
2021/12/08 04:23:38;;;;;;;1.33;1.23;;;;;;;-1.28;100.00;93180.00;5051778;28;20232;-72
2021/12/08 04:26:10;;;;;;;1.37;1.23;;;;;;;-1.23;100.00;93166.88;5041070;28;20191;-72
2021/12/08 04:28:37;;;;;;;3.37;1.10;;;;;;;-1.06;100.00;93185.53;5049562;28;20191;-72
2021/12/08 04:31:08;;;;;;;1.00;0.90;;;;;;;-1.30;100.00;93191.16;5047407;28;20206;-72
2021/12/08 04:33:36;;;;;;;1.63;1.10;;;;;;;-1.19;100.00;93204.25;5014576;28;20214;-72
2021/12/08 04:36:08;;;;;;;1.13;0.90;;;;;;;-1.13;100.00;93191.84;5048870;28;20942;-72
2021/12/08 04:38:39;;;;;;;1.43;1.33;;;;;;;-1.23;100.00;93208.94;5032247;28;20210;-72
2021/12/08 04:41:11;;;;;;;2.40;1.40;;;;;;;-1.18;100.00;93207.66;5048736;28;20226;-72
2021/12/08 04:43:59;;;;;;;2.10;1.53;;;;;;;-1.40;100.00;93208.25;5042452;28;20210;-72
2021/12/08 05:02:51;;;;;;;2.40;1.27;;;;;;;-1.05;100.00;93229.91;5032245;28;20186;-72
2021/12/08 05:08:11;;;;;;;1.57;1.17;;;;;;;-1.01;100.00;93227.84;5050922;28;20684;-72
2021/12/08 05:10:37;;;;;;;2.43;1.30;;;;;;;-1.28;100.00;93212.91;5032565;28;20192;-72
2021/12/08 05:13:07;;;;;;;1.63;1.20;;;;;;;-1.02;100.00;93224.44;5049261;28;20206;-72
2021/12/08 05:15:40;;;;;;;2.20;1.50;;;;;;;-1.15;100.00;93223.63;5056382;28;20261;-72
2021/12/08 05:18:18;;;;;;;2.13;1.60;;;;;;;-1.07;100.00;93224.22;5042308;28;20208;-72
2021/12/08 05:21:08;;;;;;;1.63;1.50;;;;;;;-0.99;100.00;93234.31;5046587;28;20223;-72
2021/12/08 05:23:36;;;;;;;2.17;1.73;;;;;;;-0.94;100.00;93243.75;5051215;28;20687;-72
2021/12/08 05:26:10;;;;;;;3.83;1.37;;;;;;;-1.00;100.00;93235.47;5050670;28;20717;-72
2021/12/08 05:28:41;;;;;;;2.00;1.23;;;;;;;-1.07;100.00;93243.72;5047000;28;20217;-72
2021/12/08 05:31:14;;;;;;;3.40;1.70;;;;;;;-0.81;100.00;93231.88;5046869;28;20996;-72
2021/12/08 05:33:42;;;;;;;3.97;1.50;;;;;;;-0.85;100.00;93230.50;5034531;28;20647;-72
2021/12/08 05:36:10;;;;;;;2.77;1.87;;;;;;;-0.77;100.00;93235.22;5032740;28;20226;-72
2021/12/08 05:38:38;;;;;;;2.10;1.60;;;;;;;-0.62;100.00;93230.97;5031364;28;20706;-73
2021/12/08 05:41:12;;;;;;;2.53;1.30;;;;;;;-0.75;100.00;93229.44;5029563;28;20242;-72
2021/12/08 05:43:38;;;;;;;1.57;1.27;;;;;;;-0.83;100.00;93234.22;5045353;28;20207;-73
2021/12/08 05:46:04;;;;;;;1.90;1.27;;;;;;;-0.88;100.00;93223.31;5057617;28;20197;-72
2021/12/08 05:48:32;;;;;;;2.10;1.30;;;;;;;-0.79;100.00;93215.38;5041783;28;20213;-72
2021/12/08 05:51:19;;;;;;;1.40;1.30;;;;;;;-0.72;100.00;93223.97;5047829;28;20186;-72
2021/12/08 05:53:47;;;;;;;2.67;1.50;;;;;;;-0.56;100.00;93215.84;5050942;28;20202;-72
2021/12/08 05:56:14;;;;;;;2.57;1.37;;;;;;;-0.52;100.00;93211.13;5037831;28;20199;-72
2021/12/08 05:58:41;;;;;;;2.03;1.63;;;;;;;-0.39;100.00;93208.47;5043891;28;20187;-72
2021/12/08 06:01:27;;;;;;;2.33;1.40;;;;;;;-0.62;100.00;93206.09;5050420;28;20210;-72
2021/12/08 06:03:53;;;;;;;5.07;1.30;;;;;;;-0.26;100.00;93212.66;5049489;28;20206;-71
2021/12/08 06:06:21;;;;;;;3.43;1.33;;;;;;;-0.13;100.00;93197.31;5033366;28;20774;-72
2021/12/08 06:08:47;;;;;;;2.40;1.83;;;;;;;-0.26;100.00;93215.34;5049734;28;20222;-72
2021/12/08 06:11:14;;;;;;;4.27;2.30;;;;;;;-0.04;100.00;93224.25;5050126;28;20191;-72
2021/12/08 06:13:42;;;;;;;2.53;1.80;;;;;;;-0.29;100.00;93226.19;5052183;28;20367;-72
2021/12/08 06:16:08;;;;;;;2.67;1.60;;;;;;;-0.36;100.00;93247.84;5061951;28;20186;-72
2021/12/08 06:18:39;;;;;;;4.97;2.20;;;;;;;-0.31;100.00;93231.97;5029580;28;20197;-72
2021/12/08 06:21:12;;;;;;;2.53;1.40;;;;;;;-0.14;100.00;93237.97;5047981;28;20225;-72
2021/12/08 06:23:40;;;;;;;2.40;1.60;;;;;;;-0.05;100.00;93232.69;5048366;28;20218;-73
2021/12/08 06:26:07;;;;;;;3.43;1.80;;;;;;;-0.15;100.00;93223.81;5030054;28;20195;-73
2021/12/08 06:28:33;;;;;;;2.80;1.60;;;;;;;-0.24;100.00;93229.06;5047968;28;20191;-72
2021/12/08 06:30:59;;;;;;;3.20;1.73;;;;;;;-0.41;100.00;93216.94;5050452;28;20187;-72
2021/12/08 06:33:26;;;;;;;2.23;1.40;;;;;;;-0.43;100.00;93205.16;5016531;28;20256;-72
2021/12/08 06:35:58;;;;;;;1.53;1.30;;;;;;;-0.36;100.00;93207.63;5034596;28;20199;-72
2021/12/08 06:38:26;;;;;;;2.67;1.50;;;;;;;-0.10;100.00;93198.38;5040030;28;20218;-72
2021/12/08 06:40:51;;;;;;;2.13;1.60;;;;;;;-0.08;100.00;93199.44;5011339;28;20771;-73
2021/12/08 06:43:21;;;;;;;3.23;2.10;;;;;;;-0.25;100.00;93194.63;5043275;28;20305;-72
2021/12/08 06:45:50;;;;;;;2.93;2.00;;;;;;;-0.09;100.00;93189.91;5061944;28;20225;-73
2021/12/08 06:48:19;;;;;;;2.23;2.03;;;;;;;0.08;100.00;93192.44;5052021;28;20199;-73
2021/12/08 06:51:25;;;;;;;3.00;2.17;;;;;;;-0.14;100.00;93182.38;5046272;28;20196;-73
2021/12/08 06:53:57;;;;;;;3.30;2.10;;;;;;;0.18;100.00;93191.38;5033361;28;20306;-73
2021/12/08 06:56:36;;;;;;;3.00;2.00;;;;;;;0.26;100.00;93185.34;5030982;28;20223;-72
2021/12/08 06:59:11;;;;;;;4.93;2.60;;;;;;;0.12;100.00;93193.09;5034719;28;20190;-73
2021/12/08 07:07:00;;;;;;;3.10;2.07;;;;;;;0.21;100.00;93201.22;5045664;28;20614;-73
2021/12/08 07:09:29;;;;;;;2.47;2.10;;;;;;;0.42;100.00;93203.22;5043660;28;20731;-72
2021/12/08 07:11:59;;;;;;;8.80;2.10;;;;;;;0.46;100.00;93209.25;5029860;28;20191;-73
2021/12/08 07:14:28;;;;;;;2.83;2.00;;;;;;;0.43;100.00;93218.91;5030052;28;20928;-73
2021/12/08 07:16:57;;;;;;;2.33;2.00;;;;;;;0.30;100.00;93215.50;5035670;28;20202;-73
2021/12/08 07:19:35;;;;;;;3.63;1.70;;;;;;;0.15;100.00;93221.75;5045110;28;20267;-72
2021/12/08 07:22:05;;;;;;;3.93;2.17;;;;;;;0.20;100.00;93223.91;5061880;28;20285;-73
2021/12/08 07:24:38;;;;;;;1.93;1.73;;;;;;;0.23;100.00;93217.66;5053784;28;20694;-73
2021/12/08 07:27:08;;;;;;;3.33;2.40;;;;;;;0.21;100.00;93220.78;5047581;28;20194;-73
2021/12/08 07:29:37;;;;;;;3.07;2.27;;;;;;;0.13;100.00;93224.13;5055909;28;20200;-72
2021/12/08 07:32:11;;;;;;;2.60;1.93;;;;;;;0.20;100.00;93218.53;5044009;28;20226;-73
2021/12/08 07:34:43;;;;;;;5.57;3.60;;;;;;;0.25;100.00;93204.56;5042048;28;20212;-73
2021/12/08 07:37:16;;;;;;;5.07;2.67;;;;;;;0.05;100.00;93207.50;5052095;28;20222;-73
2021/12/08 07:39:51;;;;;;;4.87;2.90;;;;;;;0.08;100.00;93203.94;5040612;28;20218;-73
2021/12/08 07:42:24;;;;;;;8.87;5.63;;;;;;;0.08;100.00;93200.50;5050524;28;20258;-73
2021/12/08 07:44:54;;;;;;;8.67;4.27;;;;;;;0.08;100.00;93200.50;5052965;28;20259;-73
2021/12/08 07:47:22;;;;;;;4.43;3.57;;;;;;;-0.01;100.00;93193.88;5047147;28;20199;-73
2021/12/08 07:49:53;;;;;;;7.87;3.93;;;;;;;-0.01;100.00;93196.56;5045902;28;20190;-72
2021/12/08 07:52:24;;;;;;;5.83;3.73;;;;;;;0.22;100.00;93192.00;5039760;28;20270;-73
2021/12/08 07:54:51;;;;;;;10.67;3.87;;;;;;;0.40;100.00;93198.31;5051927;28;20260;-73
2021/12/08 07:57:24;;;;;;;6.07;3.57;;;;;;;0.59;100.00;93191.91;5034878;28;20194;-72
2021/12/08 07:59:55;;;;;;;7.17;4.10;;;;;;;0.38;100.00;93192.59;5051096;28;20317;-73
2021/12/08 08:02:25;;;;;;;6.47;4.73;;;;;;;0.32;100.00;93191.66;5052997;28;20190;-72
2021/12/08 08:04:53;;;;;;;6.27;4.40;;;;;;;0.53;100.00;93196.31;5052705;28;20263;-72
2021/12/08 08:07:20;;;;;;;4.67;3.30;;;;;;;0.36;100.00;93178.09;5043249;28;20194;-72
2021/12/08 08:09:49;;;;;;;6.63;4.33;;;;;;;0.22;100.00;93168.59;5039285;28;20190;-73
2021/12/08 08:12:21;;;;;;;5.53;3.60;;;;;;;0.59;100.00;93178.47;5051406;28;20190;-72
2021/12/08 08:14:53;;;;;;;5.47;3.70;;;;;;;0.75;100.00;93167.56;5046156;28;20584;-72
2021/12/08 08:17:29;;;;;;;6.67;4.30;;;;;;;0.59;100.00;93153.56;5051206;28;20277;-73
2021/12/08 08:19:55;;;;;;;4.90;3.03;;;;;;;1.10;100.00;93141.38;5038895;28;20219;-72
2021/12/08 08:22:25;;;;;;;5.67;2.73;;;;;;;1.91;100.00;93135.56;5059556;28;20193;-73
2021/12/08 08:24:53;;;;;;;5.67;3.37;;;;;;;1.50;100.00;93131.41;5052950;28;20277;-73
2021/12/08 08:27:20;;;;;;;4.20;3.03;;;;;;;1.62;100.00;93130.56;5032235;28;20195;-72
2021/12/08 08:29:47;;;;;;;8.07;4.60;;;;;;;1.49;100.00;93134.53;5030405;28;20187;-73
2021/12/08 08:32:30;;;;;;;4.27;3.20;;;;;;;1.19;100.00;93112.59;5034670;28;20187;-73
2021/12/08 08:35:08;;;;;;;4.90;3.10;;;;;;;1.33;100.00;93110.56;5052342;28;20218;-73
2021/12/08 08:37:34;;;;;;;10.03;3.83;;;;;;;1.41;100.00;93114.50;5042578;28;20194;-73
2021/12/08 08:40:08;;;;;;;7.47;5.03;;;;;;;1.17;100.00;93109.59;5061876;28;20217;-72
2021/12/08 08:42:38;;;;;;;11.03;5.40;;;;;;;1.57;100.00;93104.25;5031132;28;20218;-72
2021/12/08 08:45:36;;;;;;;9.33;5.30;;;;;;;3.85;100.00;93107.06;5030818;28;20233;-73
2021/12/08 08:48:31;;;;;;;8.70;4.87;;;;;;;3.79;100.00;93103.50;5038568;28;20219;-73
2021/12/08 08:51:02;;;;;;;6.73;4.70;;;;;;;3.59;100.00;93105.97;5058230;28;20186;-72
2021/12/08 08:53:32;;;;;;;8.60;4.70;;;;;;;4.06;99.57;93111.44;5070373;28;20213;-73
2021/12/08 08:56:03;;;;;;;11.17;5.67;;;;;;;3.90;97.45;93108.41;5055191;28;20191;-72
2021/12/08 08:58:31;;;;;;;8.03;4.83;;;;;;;3.39;100.00;93095.69;5051652;28;20255;-73
2021/12/08 09:01:02;;;;;;;9.00;4.73;;;;;;;3.99;100.00;93092.88;5049952;28;20210;-73
2021/12/08 09:03:34;;;;;;;6.77;4.10;;;;;;;3.45;99.30;93096.59;5049657;28;20344;-73
2021/12/08 09:06:10;;;;;;;5.17;3.50;;;;;;;2.86;100.00;93091.94;5045683;28;20237;-73
2021/12/08 09:08:38;;;;;;;8.53;4.23;;;;;;;2.48;100.00;93095.13;5051192;28;20201;-73
2021/12/08 09:11:13;;;;;;;7.43;4.73;;;;;;;2.25;100.00;93089.56;5047938;28;20194;-73
2021/12/08 09:13:47;;;;;;;12.67;6.03;;;;;;;2.02;100.00;93101.66;5037361;28;20715;-73
2021/12/08 09:16:28;;;;;;;8.57;4.73;;;;;;;1.95;100.00;93103.91;5043806;28;20701;-73
2021/12/08 09:19:05;;;;;;;4.37;2.40;;;;;;;1.63;100.00;93105.16;5031608;28;20869;-73
2021/12/08 09:21:58;;;;;;;3.90;3.27;;;;;;;1.50;100.00;93107.19;5056874;28;20296;-72
2021/12/08 09:24:31;;;;;;;4.87;2.80;;;;;;;1.55;100.00;93108.56;5035118;28;20588;-73
2021/12/08 09:26:58;;;;;;;3.03;2.13;;;;;;;1.61;100.00;93109.47;5033340;28;20210;-73
2021/12/08 09:29:40;;;;;;;2.57;1.93;;;;;;;1.59;100.00;93118.00;5029913;28;20557;-72
2021/12/08 09:32:18;;;;;;;2.63;1.57;;;;;;;1.52;100.00;93112.88;5039973;28;20561;-72
2021/12/08 09:34:58;;;;;;;6.67;2.03;;;;;;;1.37;100.00;93114.63;5049416;28;20571;-73
2021/12/08 09:37:37;;;;;;;4.87;2.00;;;;;;;1.54;100.00;93107.81;5035740;28;20202;-73
2021/12/08 09:40:12;;;;;;;4.30;2.07;;;;;;;1.47;100.00;93110.03;5030008;28;20578;-73
2021/12/08 09:42:42;;;;;;;3.27;1.53;;;;;;;1.36;100.00;93094.28;5031180;28;20218;-73
2021/12/08 09:45:23;;;;;;;2.20;1.73;;;;;;;1.55;100.00;93109.31;5030818;28;20210;-73
2021/12/08 09:47:49;;;;;;;2.57;1.23;;;;;;;1.48;100.00;93108.84;5043066;28;20195;-73
2021/12/08 09:50:16;;;;;;;3.60;1.90;;;;;;;1.36;100.00;93101.63;5055236;28;20523;-72
2021/12/08 09:52:43;;;;;;;4.80;3.80;;;;;;;1.44;100.00;93092.09;5060696;28;20186;-73
2021/12/08 09:55:12;;;;;;;3.10;1.40;;;;;;;1.37;100.00;93079.66;5058392;28;20189;-73
2021/12/08 09:57:38;;;;;;;2.40;1.90;;;;;;;1.41;100.00;93071.47;5048300;28;20269;-72
2021/12/08 10:00:16;;;;;;;3.80;2.03;;;;;;;1.52;100.00;93074.47;5048883;28;20217;-73
2021/12/08 10:02:42;;;;;;;3.20;2.27;;;;;;;1.46;100.00;93068.19;5049565;28;20190;-73
2021/12/08 10:05:16;;;;;;;3.60;2.30;;;;;;;1.43;100.00;93058.31;5041437;28;20202;-73
2021/12/08 10:07:43;;;;;;;82.87;41.53;;;;;;;1.42;100.00;93049.50;5049832;28;20231;-73
2021/12/08 10:10:12;;;;;;;18.47;9.17;;;;;;;1.50;100.00;93034.59;5049352;28;20207;-73
2021/12/08 10:12:38;;;;;;;68.57;31.60;;;;;;;1.55;100.00;93038.63;5046462;28;20279;-72
2021/12/08 10:15:09;;;;;;;134.43;56.47;;;;;;;1.42;100.00;93048.75;5050581;28;20191;-73
2021/12/08 10:17:34;;;;;;;274.70;94.43;;;;;;;1.54;100.00;93054.03;5032450;28;20195;-73
2021/12/08 10:20:17;;;;;;;414.13;140.93;;;;;;;1.45;100.00;93066.69;5040672;28;20316;-73
2021/12/08 10:22:46;;;;;;;544.43;197.87;;;;;;;1.46;100.00;93060.84;5055135;28;20304;-73
2021/12/08 10:25:22;;;;;;;740.87;306.27;;;;;;;1.38;100.00;93043.50;5047164;28;20278;-73
2021/12/08 10:28:09;;;;;;;272.73;98.73;;;;;;;1.34;100.00;93042.16;5030691;28;20190;-73
2021/12/08 10:30:47;;;;;;;13.37;6.00;;;;;;;1.44;100.00;93049.81;5030648;28;20198;-72
2021/12/08 10:33:51;;;;;;;1.13;1.03;;;;;;;1.31;100.00;93041.09;5030492;28;20242;-73
2021/12/08 10:36:44;;;;;;;40.77;15.37;;;;;;;1.34;100.00;93034.81;5032041;28;20369;-72
2021/12/08 10:39:20;;;;;;;212.27;79.37;;;;;;;1.41;100.00;93026.47;5039286;28;20198;-72
2021/12/08 10:41:57;;;;;;;4.37;2.50;;;;;;;1.35;100.00;93038.25;5028113;28;20363;-72
2021/12/08 10:44:51;;;;;;;2.43;1.77;;;;;;;1.29;100.00;93032.00;5040606;28;20216;-73
2021/12/08 10:47:21;;;;;;;2.37;1.60;;;;;;;1.32;100.00;93028.41;5044318;28;20213;-73
2021/12/08 10:55:11;;;;;;;2.80;1.70;;;;;;;1.07;100.00;93038.16;5033262;28;20188;-73
2021/12/08 10:57:38;;;;;;;2.53;2.33;;;;;;;1.19;100.00;93039.25;5034415;28;20738;-73
2021/12/08 11:00:08;;;;;;;2.63;2.03;;;;;;;1.18;100.00;93030.47;5048805;28;20764;-73
2021/12/08 11:02:43;;;;;;;4.20;2.00;;;;;;;1.36;100.00;93031.72;5032977;28;20580;-73
2021/12/08 11:05:36;;;;;;;2.10;1.67;;;;;;;1.50;100.00;93039.97;5036016;28;20571;-73
2021/12/08 11:08:17;;;;;;;2.30;1.67;;;;;;;1.44;100.00;93046.38;5037480;28;20623;-72
2021/12/08 11:10:54;;;;;;;1.47;1.37;;;;;;;1.46;100.00;93039.34;5031501;28;20237;-72
2021/12/08 11:13:34;;;;;;;2.40;1.60;;;;;;;1.27;100.00;93038.53;5032949;28;20206;-73
2021/12/08 11:16:11;;;;;;;3.00;1.10;;;;;;;1.12;100.00;93032.22;5048048;28;20670;-73
2021/12/08 11:18:39;;;;;;;1.87;1.40;;;;;;;0.99;100.00;93003.94;5050742;28;20199;-72
2021/12/08 11:21:20;;;;;;;4.57;2.67;;;;;;;0.95;100.00;93003.34;5058164;28;20237;-73
2021/12/08 11:23:49;;;;;;;3.37;2.10;;;;;;;0.68;100.00;92992.47;5036817;28;20266;-73
2021/12/08 11:26:20;;;;;;;4.77;1.90;;;;;;;0.65;100.00;92982.59;5050598;28;20190;-72
2021/12/08 11:29:00;;;;;;;1.37;1.27;;;;;;;0.71;100.00;92975.47;5033590;28;20191;-73
2021/12/08 11:31:51;;;;;;;5.07;3.23;;;;;;;0.77;100.00;92971.78;4999185;28;20252;-73
2021/12/08 11:34:20;;;;;;;4.50;3.77;;;;;;;0.66;100.00;92984.09;5048798;28;20264;-73
2021/12/08 11:36:52;;;;;;;1.80;1.70;;;;;;;0.64;100.00;92981.13;5042869;28;20199;-73
2021/12/08 11:39:24;;;;;;;10.00;9.00;;;;;;;0.73;100.00;92986.53;5033400;28;20198;-73
2021/12/08 11:41:55;;;;;;;5.87;3.83;;;;;;;0.73;100.00;92983.84;5036649;28;20211;-73
2021/12/08 11:44:27;;;;;;;53.47;40.53;;;;;;;0.82;100.00;92992.69;5047982;28;20219;-73
2021/12/08 11:47:06;;;;;;;15.53;11.43;;;;;;;0.92;100.00;92996.91;5049765;28;20226;-73
2021/12/08 11:49:33;;;;;;;6.53;4.83;;;;;;;1.03;100.00;92993.81;5037833;28;20199;-73
2021/12/08 11:52:06;;;;;;;6.80;2.60;;;;;;;0.89;100.00;92995.09;5064708;28;20277;-73
2021/12/08 11:54:51;;;;;;;11.63;6.50;;;;;;;0.85;100.00;92981.03;5044839;28;20223;-73
2021/12/08 11:57:37;;;;;;;5.73;4.23;;;;;;;0.79;100.00;92979.38;5033686;28;20232;-73
2021/12/08 12:00:11;;;;;;;3.67;3.37;;;;;;;0.70;100.00;92974.72;5031220;28;20243;-73
2021/12/08 12:03:02;;;;;;;2.53;1.30;;;;;;;0.53;100.00;92970.75;5032616;28;20229;-72
2021/12/08 12:05:35;;;;;;;1.87;1.17;;;;;;;0.51;100.00;93001.94;5039365;28;20190;-73
2021/12/08 12:08:03;;;;;;;1.43;1.33;;;;;;;0.67;100.00;92999.03;5048911;28;20195;-73
2021/12/08 12:10:32;;;;;;;3.30;1.60;;;;;;;0.91;100.00;92990.03;5048766;28;20197;-73
2021/12/08 12:12:59;;;;;;;3.87;1.70;;;;;;;0.75;100.00;92982.19;5045654;28;20218;-72
2021/12/08 12:15:25;;;;;;;4.40;2.27;;;;;;;0.98;100.00;92992.47;5035284;28;20790;-73
2021/12/08 12:17:51;;;;;;;5.50;2.50;;;;;;;0.87;100.00;93000.16;5050913;28;20924;-73
2021/12/08 12:20:30;;;;;;;4.57;2.40;;;;;;;0.94;100.00;92994.53;5056507;28;20696;-72
2021/12/08 12:23:33;;;;;;;4.03;2.80;;;;;;;0.92;100.00;92996.16;5058834;28;20232;-73
2021/12/08 12:26:06;;;;;;;10.30;5.97;;;;;;;0.96;100.00;92977.97;5036391;28;20544;-73
2021/12/08 12:28:32;;;;;;;5.97;2.77;;;;;;;1.07;100.00;92983.66;5060408;28;20212;-72
2021/12/08 12:31:21;;;;;;;4.83;3.20;;;;;;;1.21;100.00;93007.31;5037528;28;20675;-73
2021/12/08 12:33:51;;;;;;;6.83;2.83;;;;;;;1.27;100.00;93015.53;5060068;28;20218;-73
2021/12/08 12:36:19;;;;;;;4.30;2.20;;;;;;;1.36;100.00;93010.22;5042720;28;20199;-72